Time;durP1;ratioP1;P1;durP2;ratioP2;P2;SDS_P1;SDS_P2;PMS_P1;PMS_P2;Temp;Humidity;BMP_temperature;BMP_pressure;BME280_temperature;BME280_humidity;BME280_pressure;Samples;Min_cycle;Max_cycle;Signal;HPM_P1;HPM_P2
2021/01/17 00:00:20;;;;;;;;;;;0.20;99.90;;;;;;5070423;28;19931;-75
2021/01/17 00:03:24;;;;;;;;;;;0.30;99.90;;;;;;5075362;28;19919;-75
2021/01/17 00:06:29;;;;;;;;;;;0.50;99.90;;;;;;5074541;28;19931;-76
2021/01/17 00:09:33;;;;;;;;;;;0.20;99.90;;;;;;5074731;28;19927;-75
2021/01/17 00:12:38;;;;;;;;;;;-0.10;99.90;;;;;;5073296;28;19923;-76
2021/01/17 00:15:41;;;;;;;;;;;-0.30;99.90;;;;;;5074712;28;19923;-77
2021/01/17 00:18:46;;;;;;;;;;;-0.50;99.90;;;;;;5074633;28;19923;-76
2021/01/17 00:21:50;;;;;;;;;;;-0.80;99.90;;;;;;5073996;28;19916;-76
2021/01/17 00:24:54;;;;;;;;;;;-0.80;99.90;;;;;;5074491;28;20424;-76
2021/01/17 00:28:01;;;;;;;;;;;-0.80;99.90;;;;;;5073650;28;19924;-74
2021/01/17 00:31:05;;;;;;;;;;;-0.90;99.90;;;;;;5061496;28;19935;-74
2021/01/17 00:34:09;;;;;;;;;;;-1.00;99.90;;;;;;5073470;28;19919;-76
2021/01/17 00:37:14;;;;;;;;;;;-0.90;99.90;;;;;;5074149;28;20457;-76
2021/01/17 00:40:18;;;;;;;;;;;-0.90;99.90;;;;;;5073881;28;19913;-75
2021/01/17 00:43:22;;;;;;;;;;;-0.90;99.90;;;;;;5073016;28;19923;-76
2021/01/17 00:46:26;;;;;;;;;;;-0.90;99.90;;;;;;5073868;28;19935;-75
2021/01/17 00:49:31;;;;;;;;;;;-1.00;99.90;;;;;;5074234;28;19920;-75
2021/01/17 00:52:35;;;;;;;;;;;-1.00;99.90;;;;;;5072915;28;19921;-75
2021/01/17 00:55:40;;;;;;;;;;;-1.10;99.90;;;;;;5074330;28;19923;-76
2021/01/17 00:58:51;;;;;;;;;;;-1.00;99.90;;;;;;5051736;28;20276;-76
2021/01/17 01:01:55;;;;;;;;;;;-0.90;99.90;;;;;;5075497;28;19987;-76
2021/01/17 01:04:59;;;;;;;;;;;-0.80;99.90;;;;;;5073149;28;19940;-76
2021/01/17 01:08:07;;;;;;;;;;;-0.90;99.90;;;;;;5073129;28;20002;-76
2021/01/17 01:11:16;;;;;;;;;;;-0.90;99.90;;;;;;5072691;28;19935;-77
2021/01/17 01:14:20;;;;;;;;;;;-0.80;99.90;;;;;;5071603;28;19935;-76
2021/01/17 01:17:25;;;;;;;;;;;-0.70;99.90;;;;;;5072793;28;19923;-76
2021/01/17 01:20:29;;;;;;;;;;;-0.60;99.90;;;;;;5072866;28;19928;-76
2021/01/17 01:23:33;;;;;;;;;;;-0.50;99.90;;;;;;5073472;28;20560;-76
2021/01/17 01:26:38;;;;;;;;;;;-0.50;99.90;;;;;;5072457;28;19931;-76
2021/01/17 01:29:42;;;;;;;;;;;-0.50;99.90;;;;;;5072406;28;19923;-75
2021/01/17 01:32:50;;;;;;;;;;;-0.50;99.90;;;;;;5073775;28;19920;-76
2021/01/17 01:35:54;;;;;;;;;;;-0.70;99.90;;;;;;5073340;28;19920;-75
2021/01/17 01:38:58;;;;;;;;;;;-0.60;99.90;;;;;;5073168;28;19920;-75
2021/01/17 01:42:05;;;;;;;;;;;-0.50;99.90;;;;;;5072749;28;19912;-76
2021/01/17 01:45:10;;;;;;;;;;;-0.50;99.90;;;;;;5073366;28;20385;-76
2021/01/17 01:48:15;;;;;;;;;;;-0.50;99.90;;;;;;5073055;28;20279;-77
2021/01/17 01:51:19;;;;;;;;;;;-0.40;99.90;;;;;;5072534;28;19920;-76
2021/01/17 01:54:23;;;;;;;;;;;-0.40;99.90;;;;;;5072970;28;20295;-75
2021/01/17 01:57:27;;;;;;;;;;;-0.40;99.90;;;;;;5071424;28;19919;-76
2021/01/17 02:00:31;;;;;;;;;;;-0.30;99.90;;;;;;5071394;28;20283;-77
2021/01/17 02:03:35;;;;;;;;;;;-0.40;99.90;;;;;;5072535;28;19931;-76
2021/01/17 02:06:43;;;;;;;;;;;-0.40;99.90;;;;;;5072530;28;19939;-76
2021/01/17 02:09:48;;;;;;;;;;;-0.50;99.90;;;;;;5072579;28;19931;-76
2021/01/17 02:12:56;;;;;;;;;;;-0.40;99.90;;;;;;5071707;28;20386;-76
2021/01/17 02:16:00;;;;;;;;;;;-0.40;99.90;;;;;;5072762;28;19939;-76
2021/01/17 02:19:05;;;;;;;;;;;-0.30;99.90;;;;;;5071463;28;19924;-76
2021/01/17 02:22:10;;;;;;;;;;;-0.30;99.90;;;;;;5072422;28;19923;-77
2021/01/17 02:25:15;;;;;;;;;;;-0.40;99.90;;;;;;5060562;28;19924;-76
2021/01/17 02:28:19;;;;;;;;;;;-0.40;99.90;;;;;;5071237;28;19923;-76
2021/01/17 02:31:24;;;;;;;;;;;-0.30;99.90;;;;;;5072187;28;19920;-76
2021/01/17 02:34:28;;;;;;;;;;;-0.50;99.90;;;;;;5072357;28;19994;-76
2021/01/17 02:37:41;;;;;;;;;;;-0.40;99.90;;;;;;5072185;28;19919;-76
2021/01/17 02:41:03;;;;;;;;;;;-0.40;99.90;;;;;;5071776;28;20378;-76
2021/01/17 02:44:07;;;;;;;;;;;-0.30;99.90;;;;;;5070724;28;19919;-75
2021/01/17 02:47:11;;;;;;;;;;;-0.30;99.90;;;;;;5071804;28;19939;-76
2021/01/17 02:50:15;;;;;;;;;;;-0.30;99.90;;;;;;5065987;28;19920;-76
2021/01/17 02:53:48;;;;;;;;;;;-0.30;99.90;;;;;;5066758;28;19927;-76
2021/01/17 02:57:07;;;;;;;;;;;-0.20;99.90;;;;;;5071211;28;19932;-76
2021/01/17 03:00:12;;;;;;;;;;;-0.30;99.90;;;;;;5057281;28;19920;-76
2021/01/17 03:03:18;;;;;;;;;;;-0.30;99.90;;;;;;5067048;28;19920;-76
2021/01/17 03:06:25;;;;;;;;;;;-0.40;99.90;;;;;;5070637;28;19927;-76
2021/01/17 03:09:30;;;;;;;;;;;-0.60;99.90;;;;;;5070676;28;20387;-76
2021/01/17 03:12:34;;;;;;;;;;;-0.70;99.90;;;;;;5070732;28;19923;-76
2021/01/17 03:15:40;;;;;;;;;;;-0.80;99.90;;;;;;5071386;28;20259;-76
2021/01/17 03:18:44;;;;;;;;;;;-0.90;99.90;;;;;;5071126;28;19923;-76
2021/01/17 03:21:48;;;;;;;;;;;-0.90;99.90;;;;;;5058342;28;19919;-75
2021/01/17 03:24:52;;;;;;;;;;;-0.80;99.90;;;;;;5070953;28;19924;-76
2021/01/17 03:27:56;;;;;;;;;;;-0.60;99.90;;;;;;5069231;28;20401;-76
2021/01/17 03:31:00;;;;;;;;;;;-0.50;99.90;;;;;;5070466;28;19940;-75
2021/01/17 03:34:07;;;;;;;;;;;-0.40;99.90;;;;;;5071206;28;19923;-75
2021/01/17 03:37:10;;;;;;;;;;;-0.40;99.90;;;;;;5060438;28;20453;-76
2021/01/17 03:40:14;;;;;;;;;;;-0.40;99.90;;;;;;5070703;28;19920;-76
2021/01/17 03:43:18;;;;;;;;;;;-0.40;99.90;;;;;;5070053;28;20493;-76
2021/01/17 03:46:24;;;;;;;;;;;-0.40;99.90;;;;;;5070833;28;19946;-76
2021/01/17 03:49:28;;;;;;;;;;;-0.60;99.90;;;;;;5070785;28;20255;-75
2021/01/17 03:52:31;;;;;;;;;;;-0.70;99.90;;;;;;5068419;28;19942;-76
2021/01/17 03:55:36;;;;;;;;;;;-0.70;99.90;;;;;;5071469;28;20386;-75
2021/01/17 03:58:40;;;;;;;;;;;-0.60;99.90;;;;;;5069258;28;19923;-75
2021/01/17 04:01:44;;;;;;;;;;;-0.50;99.90;;;;;;5069944;28;19935;-76
2021/01/17 04:04:48;;;;;;;;;;;-0.50;99.90;;;;;;5070852;28;19919;-76
2021/01/17 04:07:52;;;;;;;;;;;-0.50;99.90;;;;;;5070685;28;19912;-76
2021/01/17 04:10:56;;;;;;;;;;;-0.40;99.90;;;;;;5070115;28;19923;-75
2021/01/17 04:14:00;;;;;;;;;;;-0.30;99.90;;;;;;5069725;28;19919;-76
2021/01/17 04:17:05;;;;;;;;;;;-0.40;99.90;;;;;;5070724;28;19935;-75
2021/01/17 04:20:09;;;;;;;;;;;-0.40;99.90;;;;;;5070089;28;19928;-76
2021/01/17 04:23:13;;;;;;;;;;;-0.70;99.90;;;;;;5070855;28;19928;-76
2021/01/17 04:26:18;;;;;;;;;;;-0.90;99.90;;;;;;5070895;28;19924;-76
2021/01/17 04:29:23;;;;;;;;;;;-0.80;99.90;;;;;;5069539;28;20392;-75
2021/01/17 04:32:27;;;;;;;;;;;-0.80;99.90;;;;;;5071047;28;19920;-75
2021/01/17 04:35:31;;;;;;;;;;;-0.70;99.90;;;;;;5071090;28;19920;-76
2021/01/17 04:38:35;;;;;;;;;;;-0.60;99.90;;;;;;5070146;28;19924;-76
2021/01/17 04:41:42;;;;;;;;;;;-0.60;99.90;;;;;;5070162;28;20375;-76
2021/01/17 04:44:51;;;;;;;;;;;-0.50;99.90;;;;;;5069674;28;19935;-75
2021/01/17 04:47:55;;;;;;;;;;;-0.30;99.90;;;;;;5059223;28;19920;-76
2021/01/17 04:51:01;;;;;;;;;;;-0.20;99.90;;;;;;5073123;28;19938;-76
2021/01/17 04:54:05;;;;;;;;;;;0.00;99.90;;;;;;5074039;28;19931;-76
2021/01/17 04:57:15;;;;;;;;;;;0.00;99.90;;;;;;5074064;28;19920;-76
2021/01/17 05:00:23;;;;;;;;;;;0.10;99.90;;;;;;5073296;28;19924;-76
2021/01/17 05:03:44;;;;;;;;;;;0.20;99.90;;;;;;5073554;28;19975;-75
2021/01/17 05:06:55;;;;;;;;;;;0.20;99.90;;;;;;5073661;28;19923;-75
2021/01/17 05:10:03;;;;;;;;;;;0.20;99.90;;;;;;5073383;28;19991;-77
2021/01/17 05:13:15;;;;;;;;;;;0.20;99.90;;;;;;5073422;28;19919;-75
2021/01/17 05:16:23;;;;;;;;;;;0.10;99.90;;;;;;5074149;28;20363;-76
2021/01/17 05:19:27;;;;;;;;;;;-0.10;99.90;;;;;;5073749;28;20311;-76
2021/01/17 05:22:31;;;;;;;;;;;-0.40;99.90;;;;;;5073634;28;19920;-76
2021/01/17 05:25:35;;;;;;;;;;;-0.30;99.90;;;;;;5073875;28;19924;-76
2021/01/17 05:28:39;;;;;;;;;;;-0.10;99.90;;;;;;5073004;28;19916;-76
2021/01/17 05:31:47;;;;;;;;;;;0.10;99.90;;;;;;5073064;28;19940;-76
2021/01/17 05:34:52;;;;;;;;;;;0.10;99.90;;;;;;5073391;28;19924;-76
2021/01/17 05:37:56;;;;;;;;;;;0.00;99.90;;;;;;5072517;28;19924;-76
2021/01/17 05:41:00;;;;;;;;;;;0.00;99.90;;;;;;5072191;28;19939;-74
2021/01/17 05:44:04;;;;;;;;;;;0.00;99.90;;;;;;5072041;28;19927;-74
2021/01/17 05:47:08;;;;;;;;;;;0.00;99.90;;;;;;5073236;28;20370;-75
2021/01/17 05:50:13;;;;;;;;;;;0.00;99.90;;;;;;5066554;28;19935;-76
2021/01/17 05:53:17;;;;;;;;;;;-0.20;99.90;;;;;;5059201;28;19935;-76
2021/01/17 05:56:22;;;;;;;;;;;-0.40;99.90;;;;;;5071010;28;20374;-75
2021/01/17 05:59:36;;;;;;;;;;;-0.50;99.90;;;;;;5066026;28;19920;-75
2021/01/17 06:02:41;;;;;;;;;;;-0.40;99.90;;;;;;5064081;28;20352;-74
2021/01/17 06:05:46;;;;;;;;;;;-0.40;99.90;;;;;;5067113;28;19932;-75
2021/01/17 06:08:54;;;;;;;;;;;-0.20;99.90;;;;;;5068438;28;19923;-75
2021/01/17 06:11:59;;;;;;;;;;;0.00;99.90;;;;;;5064076;28;19924;-74
2021/01/17 06:15:04;;;;;;;;;;;0.20;99.90;;;;;;5062555;28;19940;-76
2021/01/17 06:18:14;;;;;;;;;;;0.20;99.90;;;;;;5071008;28;19927;-76
2021/01/17 06:21:18;;;;;;;;;;;0.20;99.90;;;;;;5048532;28;19927;-75
2021/01/17 06:24:31;;;;;;;;;;;0.10;99.90;;;;;;5069464;28;19935;-76
2021/01/17 06:27:38;;;;;;;;;;;0.10;99.90;;;;;;5064308;28;20214;-74
2021/01/17 06:30:42;;;;;;;;;;;0.20;99.90;;;;;;5066852;28;20271;-76
2021/01/17 06:33:48;;;;;;;;;;;0.00;99.90;;;;;;5070805;28;19920;-74
2021/01/17 06:37:04;;;;;;;;;;;0.10;99.90;;;;;;5069848;28;19927;-76
2021/01/17 06:40:08;;;;;;;;;;;0.10;99.90;;;;;;5069286;28;19920;-75
2021/01/17 06:43:12;;;;;;;;;;;0.00;99.90;;;;;;5068805;28;20259;-76
2021/01/17 06:46:16;;;;;;;;;;;0.10;99.90;;;;;;5070901;28;19924;-76
2021/01/17 06:49:24;;;;;;;;;;;0.00;99.90;;;;;;5070560;28;19919;-76
2021/01/17 06:52:32;;;;;;;;;;;-0.10;99.90;;;;;;5070081;28;19920;-75
2021/01/17 06:55:36;;;;;;;;;;;-0.10;99.90;;;;;;5066731;28;19919;-75
2021/01/17 06:58:41;;;;;;;;;;;-0.10;99.90;;;;;;5056539;28;19924;-76
2021/01/17 07:01:52;;;;;;;;;;;-0.10;99.90;;;;;;5067936;28;19919;-76
2021/01/17 07:05:07;;;;;;;;;;;-0.20;99.90;;;;;;5070821;28;19934;-76
2021/01/17 07:08:17;;;;;;;;;;;-0.20;99.90;;;;;;5067935;28;19924;-76
2021/01/17 07:11:26;;;;;;;;;;;-0.10;99.90;;;;;;5061861;28;20273;-76
2021/01/17 07:14:30;;;;;;;;;;;0.00;99.90;;;;;;5066968;28;19987;-76
2021/01/17 07:17:35;;;;;;;;;;;0.00;99.90;;;;;;5070081;28;19927;-76
2021/01/17 07:20:40;;;;;;;;;;;-0.10;99.90;;;;;;5067556;28;19920;-76
2021/01/17 07:23:44;;;;;;;;;;;-0.10;99.90;;;;;;5069245;28;19920;-76
2021/01/17 07:27:02;;;;;;;;;;;-0.20;99.90;;;;;;5062351;28;20279;-77
2021/01/17 07:30:06;;;;;;;;;;;-0.20;99.90;;;;;;5065001;28;20366;-75
2021/01/17 07:33:10;;;;;;;;;;;-0.30;99.90;;;;;;5066694;28;19955;-74
2021/01/17 07:36:18;;;;;;;;;;;-0.20;99.90;;;;;;5060888;28;19943;-76
2021/01/17 07:39:24;;;;;;;;;;;-0.10;99.90;;;;;;5053773;28;19923;-76
2021/01/17 07:42:32;;;;;;;;;;;0.00;99.90;;;;;;5062981;28;19924;-76
2021/01/17 07:45:37;;;;;;;;;;;0.20;99.90;;;;;;5053179;28;19931;-76
2021/01/17 07:48:43;;;;;;;;;;;0.20;99.90;;;;;;5069014;28;19920;-75
2021/01/17 07:51:48;;;;;;;;;;;0.10;99.90;;;;;;5068059;28;19936;-74
2021/01/17 07:54:54;;;;;;;;;;;0.10;99.90;;;;;;5066816;28;19924;-74
2021/01/17 07:57:58;;;;;;;;;;;-0.20;99.90;;;;;;5065129;28;19971;-76
2021/01/17 08:01:02;;;;;;;;;;;-0.10;99.90;;;;;;5066484;28;19931;-76
2021/01/17 08:04:07;;;;;;;;;;;-0.10;99.90;;;;;;5067237;28;19923;-75
2021/01/17 08:07:29;;;;;;;;;;;-0.10;99.90;;;;;;5061937;28;19924;-75
2021/01/17 08:10:35;;;;;;;;;;;-0.30;99.90;;;;;;5031915;28;19919;-75
2021/01/17 08:13:43;;;;;;;;;;;-0.10;99.90;;;;;;5067768;28;19913;-76
2021/01/17 08:17:06;;;;;;;;;;;-0.10;99.90;;;;;;5070102;28;19920;-76
2021/01/17 08:20:19;;;;;;;;;;;-0.10;99.90;;;;;;5063320;28;19924;-76
2021/01/17 08:23:23;;;;;;;;;;;-0.10;99.90;;;;;;5057744;28;19924;-76
2021/01/17 08:26:47;;;;;;;;;;;0.10;99.90;;;;;;5070597;28;19924;-75
2021/01/17 08:30:00;;;;;;;;;;;0.30;99.90;;;;;;5069522;28;19939;-75
2021/01/17 08:33:10;;;;;;;;;;;0.30;99.90;;;;;;5059595;28;19919;-76
2021/01/17 08:36:27;;;;;;;;;;;0.40;99.90;;;;;;5064741;28;19927;-76
2021/01/17 08:39:54;;;;;;;;;;;0.50;99.90;;;;;;5065550;28;20382;-75
2021/01/17 08:43:02;;;;;;;;;;;0.50;99.90;;;;;;5051545;28;19923;-75
2021/01/17 08:46:07;;;;;;;;;;;0.60;99.90;;;;;;5065425;28;19928;-75
2021/01/17 08:49:11;;;;;;;;;;;0.60;99.90;;;;;;5060037;28;19919;-75
2021/01/17 08:52:35;;;;;;;;;;;0.80;99.90;;;;;;5055051;28;19920;-76
2021/01/17 08:55:40;;;;;;;;;;;0.90;99.90;;;;;;5060659;28;19980;-75
2021/01/17 08:58:45;;;;;;;;;;;1.10;99.90;;;;;;5058372;28;19923;-76
2021/01/17 09:01:59;;;;;;;;;;;1.10;99.90;;;;;;5059918;28;19919;-76
2021/01/17 09:05:04;;;;;;;;;;;1.10;99.90;;;;;;5073657;28;19924;-75
2021/01/17 09:08:08;;;;;;;;;;;1.10;99.90;;;;;;5073286;28;20362;-76
2021/01/17 09:11:25;;;;;;;;;;;1.10;99.90;;;;;;5073295;28;20266;-75
2021/01/17 09:14:29;;;;;;;;;;;1.10;99.90;;;;;;5072890;28;19927;-76
2021/01/17 09:17:34;;;;;;;;;;;1.20;99.90;;;;;;5069944;28;19927;-76
2021/01/17 09:20:42;;;;;;;;;;;1.30;99.90;;;;;;5070638;28;19920;-76
2021/01/17 09:23:50;;;;;;;;;;;1.50;99.90;;;;;;5071711;28;19936;-76
2021/01/17 09:26:58;;;;;;;;;;;1.10;99.90;;;;;;5073150;28;19928;-76
2021/01/17 09:30:03;;;;;;;;;;;1.00;99.90;;;;;;5067059;28;20411;-76
2021/01/17 09:33:08;;;;;;;;;;;0.90;99.90;;;;;;5070866;28;19920;-76
2021/01/17 09:36:12;;;;;;;;;;;1.10;99.90;;;;;;5070510;28;19935;-75
2021/01/17 09:39:24;;;;;;;;;;;1.20;99.90;;;;;;5057695;28;19931;-76
2021/01/17 09:42:29;;;;;;;;;;;1.50;99.90;;;;;;5069641;28;20374;-76
2021/01/17 09:45:34;;;;;;;;;;;1.80;99.90;;;;;;5056776;28;19920;-75
2021/01/17 09:48:38;;;;;;;;;;;2.10;99.90;;;;;;5057320;28;20300;-75
2021/01/17 09:51:46;;;;;;;;;;;2.40;99.90;;;;;;5060409;28;19919;-75
2021/01/17 09:54:51;;;;;;;;;;;2.70;99.90;;;;;;5070117;28;19920;-74
2021/01/17 09:57:56;;;;;;;;;;;3.50;99.90;;;;;;5057589;28;19956;-76
2021/01/17 10:01:01;;;;;;;;;;;3.80;99.90;;;;;;5064165;28;19924;-76
2021/01/17 10:04:05;;;;;;;;;;;4.70;99.90;;;;;;5073344;28;20386;-76
2021/01/17 10:07:16;;;;;;;;;;;5.00;99.90;;;;;;5066651;28;20291;-75
2021/01/17 10:10:21;;;;;;;;;;;4.90;99.90;;;;;;5070838;28;19919;-76
2021/01/17 10:13:26;;;;;;;;;;;3.80;99.90;;;;;;5070086;28;19919;-76
2021/01/17 10:16:30;;;;;;;;;;;3.30;99.90;;;;;;5072433;28;19924;-75
2021/01/17 10:19:35;;;;;;;;;;;3.10;99.90;;;;;;5071875;28;20370;-75
2021/01/17 10:22:39;;;;;;;;;;;3.00;99.90;;;;;;5059125;28;19920;-75
2021/01/17 10:25:44;;;;;;;;;;;3.20;99.90;;;;;;5055146;28;19924;-76
2021/01/17 10:28:48;;;;;;;;;;;3.30;99.90;;;;;;5070495;28;19920;-75
2021/01/17 10:31:56;;;;;;;;;;;3.40;99.90;;;;;;5067814;28;19939;-76
2021/01/17 10:35:02;;;;;;;;;;;3.50;99.90;;;;;;5066741;28;19924;-75
2021/01/17 10:38:09;;;;;;;;;;;3.40;99.90;;;;;;5061977;28;20761;-75
2021/01/17 10:41:23;;;;;;;;;;;3.50;99.90;;;;;;5068738;28;19983;-75
2021/01/17 10:44:27;;;;;;;;;;;3.30;99.90;;;;;;5070355;28;19919;-75
2021/01/17 10:47:31;;;;;;;;;;;3.30;99.90;;;;;;5066969;28;19923;-75
2021/01/17 10:50:50;;;;;;;;;;;3.40;99.90;;;;;;5071173;28;20634;-76
2021/01/17 10:53:54;;;;;;;;;;;3.50;99.90;;;;;;5070864;28;19927;-75
2021/01/17 10:57:05;;;;;;;;;;;3.80;99.90;;;;;;5071680;28;19923;-76
2021/01/17 11:00:09;;;;;;;;;;;4.00;99.90;;;;;;5070487;28;19919;-75
2021/01/17 11:03:13;;;;;;;;;;;4.20;99.90;;;;;;5071060;28;19923;-76
2021/01/17 11:06:21;;;;;;;;;;;4.50;99.90;;;;;;5071387;28;19927;-76
2021/01/17 11:09:27;;;;;;;;;;;4.90;99.90;;;;;;5071286;28;19920;-76
2021/01/17 11:12:32;;;;;;;;;;;5.00;99.90;;;;;;5065750;28;20310;-76
2021/01/17 11:15:37;;;;;;;;;;;5.30;99.90;;;;;;5070239;28;19919;-76
2021/01/17 11:18:47;;;;;;;;;;;5.00;99.90;;;;;;5063740;28;19920;-76
2021/01/17 11:21:53;;;;;;;;;;;5.30;99.90;;;;;;5066706;28;20374;-75
2021/01/17 11:24:58;;;;;;;;;;;5.40;99.90;;;;;;5070219;28;19920;-76
2021/01/17 11:28:20;;;;;;;;;;;5.30;99.90;;;;;;5057216;28;19924;-76
2021/01/17 11:31:25;;;;;;;;;;;4.30;99.90;;;;;;5070777;28;20283;-75
2021/01/17 11:34:48;;;;;;;;;;;4.00;99.90;;;;;;5070180;28;19923;-76
2021/01/17 11:37:52;;;;;;;;;;;3.90;99.90;;;;;;5055198;28;19924;-76
2021/01/17 11:41:05;;;;;;;;;;;4.20;99.90;;;;;;5069481;28;20275;-76
2021/01/17 11:44:14;;;;;;;;;;;4.30;99.90;;;;;;5066739;28;19936;-76
2021/01/17 11:47:19;;;;;;;;;;;4.70;99.90;;;;;;5067412;28;19931;-75
2021/01/17 11:50:24;;;;;;;;;;;4.80;99.90;;;;;;5065320;28;19947;-75
2021/01/17 11:53:31;;;;;;;;;;;4.80;99.90;;;;;;5070100;28;19942;-76
2021/01/17 11:56:36;;;;;;;;;;;4.60;99.90;;;;;;5068439;28;19924;-75
2021/01/17 11:59:40;;;;;;;;;;;4.60;99.90;;;;;;5067308;28;19919;-75
2021/01/17 12:02:45;;;;;;;;;;;4.70;99.90;;;;;;5069379;28;19966;-75
2021/01/17 12:05:59;;;;;;;;;;;4.80;99.90;;;;;;5065946;28;19931;-76
2021/01/17 12:09:04;;;;;;;;;;;5.00;99.90;;;;;;5061613;28;19923;-75
2021/01/17 12:12:13;;;;;;;;;;;5.20;99.90;;;;;;5062257;28;19924;-77
2021/01/17 12:15:17;;;;;;;;;;;5.00;99.90;;;;;;5060969;28;20276;-76
2021/01/17 12:18:21;;;;;;;;;;;5.30;99.90;;;;;;5062072;28;19922;-76
2021/01/17 12:21:25;;;;;;;;;;;5.40;99.90;;;;;;5063597;28;19920;-76
2021/01/17 12:24:29;;;;;;;;;;;5.50;99.90;;;;;;5054399;28;19919;-76
2021/01/17 12:27:34;;;;;;;;;;;5.60;99.90;;;;;;5054465;28;19923;-77
2021/01/17 12:30:38;;;;;;;;;;;5.70;99.90;;;;;;5052627;28;19920;-76
2021/01/17 12:33:42;;;;;;;;;;;5.70;99.90;;;;;;5061468;28;19924;-76
2021/01/17 12:36:47;;;;;;;;;;;5.60;99.90;;;;;;5052482;28;20422;-76
2021/01/17 12:39:51;;;;;;;;;;;5.30;99.90;;;;;;5052040;28;19923;-76
2021/01/17 12:42:55;;;;;;;;;;;5.40;99.90;;;;;;5066479;28;19924;-76
2021/01/17 12:45:59;;;;;;;;;;;5.20;99.90;;;;;;5055274;28;20390;-76
2021/01/17 12:49:03;;;;;;;;;;;4.90;99.90;;;;;;5058522;28;19943;-76
2021/01/17 12:52:07;;;;;;;;;;;4.90;99.90;;;;;;5055017;28;19924;-75
2021/01/17 12:55:11;;;;;;;;;;;4.90;99.90;;;;;;5065676;28;19923;-76
2021/01/17 12:58:15;;;;;;;;;;;5.00;99.90;;;;;;5066348;28;19928;-76
2021/01/17 13:01:19;;;;;;;;;;;5.20;99.90;;;;;;5051226;28;20366;-76
2021/01/17 13:04:23;;;;;;;;;;;5.30;99.90;;;;;;5070385;28;19923;-76
2021/01/17 13:07:27;;;;;;;;;;;5.20;99.90;;;;;;5063886;28;19924;-76
2021/01/17 13:10:31;;;;;;;;;;;4.70;99.90;;;;;;5068854;28;19931;-76
2021/01/17 13:13:37;;;;;;;;;;;4.40;99.90;;;;;;5072454;28;19920;-76
2021/01/17 13:16:41;;;;;;;;;;;4.70;99.90;;;;;;5072573;28;19923;-76
2021/01/17 13:19:45;;;;;;;;;;;4.70;99.90;;;;;;5070474;28;19920;-76
2021/01/17 13:22:49;;;;;;;;;;;4.90;99.90;;;;;;5072997;28;19928;-75
2021/01/17 13:25:53;;;;;;;;;;;5.10;99.90;;;;;;5070955;28;20295;-75
2021/01/17 13:28:57;;;;;;;;;;;5.00;99.90;;;;;;5056265;28;19920;-75
2021/01/17 13:32:01;;;;;;;;;;;5.00;99.90;;;;;;5071437;28;19923;-76
2021/01/17 13:35:06;;;;;;;;;;;5.00;99.90;;;;;;5066624;28;19927;-76
2021/01/17 13:38:10;;;;;;;;;;;5.30;99.90;;;;;;5043098;28;20828;-76
2021/01/17 13:41:17;;;;;;;;;;;5.40;99.90;;;;;;5045457;28;19928;-76
2021/01/17 13:44:23;;;;;;;;;;;5.20;99.90;;;;;;5057916;28;20490;-76
2021/01/17 13:47:28;;;;;;;;;;;5.30;99.90;;;;;;5056271;28;19932;-76
2021/01/17 13:50:33;;;;;;;;;;;5.50;99.90;;;;;;5065144;28;19927;-76
2021/01/17 13:57:02;;;;;;;;;;;5.40;99.90;;;;;;5060570;28;19931;-76
2021/01/17 14:00:26;;;;;;;;;;;5.80;99.90;;;;;;5060990;28;19939;-76
2021/01/17 14:03:30;;;;;;;;;;;5.80;99.90;;;;;;5062986;28;19927;-76
2021/01/17 14:06:39;;;;;;;;;;;5.70;99.90;;;;;;5059301;28;20429;-76
2021/01/17 14:09:43;;;;;;;;;;;5.50;99.90;;;;;;5062948;28;19920;-76
2021/01/17 14:12:49;;;;;;;;;;;5.30;99.90;;;;;;5060708;28;19919;-76
2021/01/17 14:15:54;;;;;;;;;;;5.20;99.90;;;;;;5061240;28;19928;-77
2021/01/17 14:18:58;;;;;;;;;;;5.10;99.90;;;;;;5051667;28;19931;-77
2021/01/17 14:22:03;;;;;;;;;;;5.10;99.90;;;;;;5059802;28;19988;-76
2021/01/17 14:25:07;;;;;;;;;;;5.00;99.90;;;;;;5062017;28;20721;-76
2021/01/17 14:28:12;;;;;;;;;;;5.10;99.90;;;;;;5061071;28;19924;-76
2021/01/17 14:31:17;;;;;;;;;;;4.60;99.90;;;;;;5063523;28;19921;-76
2021/01/17 14:34:21;;;;;;;;;;;4.50;99.90;;;;;;5064632;28;19932;-74
2021/01/17 14:37:25;;;;;;;;;;;4.70;99.90;;;;;;5059946;28;19943;-76
2021/01/17 14:40:29;;;;;;;;;;;4.70;99.90;;;;;;5062436;28;19923;-76
2021/01/17 14:43:33;;;;;;;;;;;4.70;99.90;;;;;;5063427;28;19920;-76
2021/01/17 14:46:41;;;;;;;;;;;4.70;99.90;;;;;;5061347;28;19943;-75
2021/01/17 14:49:45;;;;;;;;;;;4.70;99.90;;;;;;5064258;28;19927;-76
2021/01/17 14:52:49;;;;;;;;;;;4.60;99.90;;;;;;5063007;28;19928;-76
2021/01/17 14:55:53;;;;;;;;;;;4.60;99.90;;;;;;5063179;28;19931;-77
2021/01/17 14:58:58;;;;;;;;;;;4.50;99.90;;;;;;5063466;28;19928;-75
2021/01/17 15:02:02;;;;;;;;;;;4.60;99.90;;;;;;5063396;28;19920;-74
2021/01/17 15:05:08;;;;;;;;;;;4.60;99.90;;;;;;5064636;28;19927;-75
2021/01/17 15:08:12;;;;;;;;;;;4.60;99.90;;;;;;5061672;28;20475;-76
2021/01/17 15:11:17;;;;;;;;;;;4.40;99.90;;;;;;5062645;28;19928;-74
2021/01/17 15:14:21;;;;;;;;;;;4.40;99.90;;;;;;5061164;28;20548;-76
2021/01/17 15:17:26;;;;;;;;;;;4.30;99.90;;;;;;5055515;28;20586;-76
2021/01/17 15:20:30;;;;;;;;;;;4.20;99.90;;;;;;5061804;28;19927;-76
2021/01/17 15:23:34;;;;;;;;;;;4.10;99.90;;;;;;5064582;28;19924;-77
2021/01/17 15:26:40;;;;;;;;;;;4.10;99.90;;;;;;5058188;28;19947;-76
2021/01/17 15:29:45;;;;;;;;;;;4.10;99.90;;;;;;5061800;28;20003;-76
2021/01/17 15:32:50;;;;;;;;;;;4.10;99.90;;;;;;5062946;28;19955;-76
2021/01/17 15:35:58;;;;;;;;;;;4.30;99.90;;;;;;5061738;28;19940;-76
2021/01/17 15:39:02;;;;;;;;;;;4.30;99.90;;;;;;5064292;28;19924;-76
2021/01/17 15:42:06;;;;;;;;;;;4.30;99.90;;;;;;5061602;28;19938;-76
2021/01/17 15:45:11;;;;;;;;;;;4.20;99.90;;;;;;5063680;28;19923;-74
2021/01/17 15:48:15;;;;;;;;;;;4.20;99.90;;;;;;5062913;28;20437;-77
2021/01/17 15:51:20;;;;;;;;;;;4.40;99.90;;;;;;5061233;28;19986;-76
2021/01/17 15:54:25;;;;;;;;;;;4.50;99.90;;;;;;5063547;28;19931;-77
2021/01/17 15:57:29;;;;;;;;;;;4.40;99.90;;;;;;5058971;28;20636;-75
2021/01/17 16:00:34;;;;;;;;;;;4.30;99.90;;;;;;5063111;28;20504;-75
2021/01/17 16:03:40;;;;;;;;;;;4.10;99.90;;;;;;5062023;28;19919;-76
2021/01/17 16:06:46;;;;;;;;;;;3.90;99.90;;;;;;5060069;28;19924;-77
2021/01/17 16:09:50;;;;;;;;;;;3.80;99.90;;;;;;5061728;28;19939;-76
2021/01/17 16:12:54;;;;;;;;;;;3.60;99.90;;;;;;5061080;28;19928;-76
2021/01/17 16:15:58;;;;;;;;;;;3.50;99.90;;;;;;5061508;28;19928;-77
2021/01/17 16:19:02;;;;;;;;;;;3.40;99.90;;;;;;5063080;28;19920;-75
2021/01/17 16:22:07;;;;;;;;;;;3.20;99.90;;;;;;5061570;28;19928;-76
2021/01/17 16:25:13;;;;;;;;;;;3.10;99.90;;;;;;5062910;28;19920;-76
2021/01/17 16:28:19;;;;;;;;;;;3.10;99.90;;;;;;5060960;28;19927;-75
2021/01/17 16:31:34;;;;;;;;;;;3.00;99.90;;;;;;5061118;28;19927;-76
2021/01/17 16:34:40;;;;;;;;;;;3.00;99.90;;;;;;5062188;28;19951;-75
2021/01/17 16:37:44;;;;;;;;;;;3.00;99.90;;;;;;5060319;28;20401;-75
2021/01/17 16:40:49;;;;;;;;;;;2.90;99.90;;;;;;5061328;28;20270;-76
2021/01/17 16:43:55;;;;;;;;;;;2.90;99.90;;;;;;5064305;28;19928;-77
2021/01/17 16:46:58;;;;;;;;;;;2.90;99.90;;;;;;5065277;28;19936;-76
2021/01/17 16:50:06;;;;;;;;;;;2.80;99.90;;;;;;5066447;28;20500;-76
2021/01/17 16:53:10;;;;;;;;;;;2.80;99.90;;;;;;5064907;28;19928;-77
2021/01/17 16:56:15;;;;;;;;;;;2.70;99.90;;;;;;5063535;28;20362;-76
2021/01/17 16:59:19;;;;;;;;;;;2.70;99.90;;;;;;5064474;28;19923;-77
2021/01/17 17:02:23;;;;;;;;;;;2.70;99.90;;;;;;5066342;28;19932;-76
2021/01/17 17:05:28;;;;;;;;;;;2.60;99.90;;;;;;5066176;28;19931;-76
2021/01/17 17:08:32;;;;;;;;;;;2.60;99.90;;;;;;5065969;28;19939;-77
2021/01/17 17:11:37;;;;;;;;;;;2.60;99.90;;;;;;5064667;28;19943;-76
2021/01/17 17:14:41;;;;;;;;;;;2.60;99.90;;;;;;5066147;28;19920;-77
2021/01/17 17:17:46;;;;;;;;;;;2.60;99.90;;;;;;5065505;28;19928;-77
2021/01/17 17:20:50;;;;;;;;;;;2.60;99.90;;;;;;5065370;28;19927;-76
2021/01/17 17:23:58;;;;;;;;;;;2.60;99.90;;;;;;5066453;28;19931;-76
2021/01/17 17:27:02;;;;;;;;;;;2.70;99.90;;;;;;5063791;28;19932;-77
2021/01/17 17:30:06;;;;;;;;;;;2.60;99.90;;;;;;5064917;28;19943;-76
2021/01/17 17:33:11;;;;;;;;;;;2.60;99.90;;;;;;5038202;28;20303;-77
2021/01/17 17:36:16;;;;;;;;;;;2.50;99.90;;;;;;5062643;28;19924;-76
2021/01/17 17:39:20;;;;;;;;;;;2.40;99.90;;;;;;5068274;28;19941;-76
2021/01/17 17:42:24;;;;;;;;;;;2.40;99.90;;;;;;5057084;28;19939;-76
2021/01/17 17:45:28;;;;;;;;;;;2.30;99.90;;;;;;5071608;28;19923;-76
2021/01/17 17:48:32;;;;;;;;;;;2.30;99.90;;;;;;5071209;28;19923;-76
2021/01/17 17:51:38;;;;;;;;;;;2.20;99.90;;;;;;5072111;28;19923;-76
2021/01/17 17:54:42;;;;;;;;;;;2.20;99.90;;;;;;5046711;28;19928;-77
2021/01/17 17:57:47;;;;;;;;;;;2.20;99.90;;;;;;5065969;28;19923;-76
2021/01/17 18:00:52;;;;;;;;;;;2.20;99.90;;;;;;5070713;28;19924;-76
2021/01/17 18:03:57;;;;;;;;;;;2.10;99.90;;;;;;5070619;28;19919;-76
2021/01/17 18:07:01;;;;;;;;;;;2.10;99.90;;;;;;5071380;28;20394;-76
2021/01/17 18:10:05;;;;;;;;;;;2.00;99.90;;;;;;5070595;28;19920;-77
2021/01/17 18:13:09;;;;;;;;;;;2.00;99.90;;;;;;5068554;28;19919;-76
2021/01/17 18:16:13;;;;;;;;;;;2.00;99.90;;;;;;5071556;28;19920;-77